Louise, Mississippi
Current Conditions -  °F | °C
As of 4:53 PM on Sunday 21 Dec 2014 (Local Time) from KGLH Reporting Station
Clear Clear  
Wind Chill: 54°   Ceiling: Unl
Heat Index: 54°   Visibility: 10mi
Dew Point: 41°   Wind: 3mph
Humidity: 62%   Direction: 120°ESE
Pressure: 29.99"   Gusts: NA
Location:  32.98°N, 90.59°W
Report Text: KGLH 212253Z AUTO 12003KT 10SM CLR 12/05 A2999 RMK AO2 SLP165 T01220050
Loading
Personal Weather Stations






























Interactive Weather Map New forecast layout! Learn more

10-Day Weather Forecast

Advertisements
Track Severe Weather on mobile